Middletown, Rhode Island
Current Conditions -  °F | °C
As of 1:53 AM on Saturday 29 Nov 2014 (Local Time) from KUUU Reporting Station
Clear Clear  
Wind Chill: 19°   Ceiling: Unl
Heat Index: 27°   Visibility: 10mi
Dew Point: 15°   Wind: 8mph
Humidity: 61%   Direction: 330°NNW
Pressure: 30.25"   Gusts: NA
Location:  41.55°N, 71.29°W
Report Text: KUUU 290653Z AUTO 33007KT 10SM CLR M03/M09 A3025 RMK AO2 SLP243 T10281094
Loading
Personal Weather Stations






























Interactive Weather Map New forecast layout! Learn more

10-Day Weather Forecast

Advertisements
Track Severe Weather on mobile